sensor_id;sensor_type;location;lat;lon;timestamp;temperature;humidity
39525;DHT22;25203;50.754;6.978;2023-03-14T00:00:55;11.70;99.90
39525;DHT22;25203;50.754;6.978;2023-03-14T00:02:55;11.60;99.90
39525;DHT22;25203;50.754;6.978;2023-03-14T00:04:56;11.60;99.90
39525;DHT22;25203;50.754;6.978;2023-03-14T00:06:57;11.60;99.90
39525;DHT22;25203;50.754;6.978;2023-03-14T00:08:58;11.60;99.90
39525;DHT22;25203;50.754;6.978;2023-03-14T00:11:07;11.50;99.90
39525;DHT22;25203;50.754;6.978;2023-03-14T00:13:09;11.60;99.90
39525;DHT22;25203;50.754;6.978;2023-03-14T00:15:10;11.60;99.90
39525;DHT22;25203;50.754;6.978;2023-03-14T00:17:11;11.60;99.90
39525;DHT22;25203;50.754;6.978;2023-03-14T00:19:14;11.70;99.90
39525;DHT22;25203;50.754;6.978;2023-03-14T00:21:15;11.80;99.90
39525;DHT22;25203;50.754;6.978;2023-03-14T00:23:15;11.80;99.90
39525;DHT22;25203;50.754;6.978;2023-03-14T00:25:16;11.90;99.90
39525;DHT22;25203;50.754;6.978;2023-03-14T00:27:17;11.90;99.90
39525;DHT22;25203;50.754;6.978;2023-03-14T00:29:17;11.90;99.90
39525;DHT22;25203;50.754;6.978;2023-03-14T00:31:18;12.00;99.90
39525;DHT22;25203;50.754;6.978;2023-03-14T00:33:19;12.00;99.90
39525;DHT22;25203;50.754;6.978;2023-03-14T00:35:19;12.00;99.90
39525;DHT22;25203;50.754;6.978;2023-03-14T00:37:20;11.90;99.90
39525;DHT22;25203;50.754;6.978;2023-03-14T00:39:21;11.90;99.90
39525;DHT22;25203;50.754;6.978;2023-03-14T00:41:22;11.90;99.90
39525;DHT22;25203;50.754;6.978;2023-03-14T00:43:23;11.80;99.90
39525;DHT22;25203;50.754;6.978;2023-03-14T00:45:24;11.70;99.90
39525;DHT22;25203;50.754;6.978;2023-03-14T00:47:25;11.70;99.90
39525;DHT22;25203;50.754;6.978;2023-03-14T00:49:25;11.70;99.90
39525;DHT22;25203;50.754;6.978;2023-03-14T00:51:26;11.70;99.90
39525;DHT22;25203;50.754;6.978;2023-03-14T00:53:27;11.70;99.90
39525;DHT22;25203;50.754;6.978;2023-03-14T00:55:27;11.60;99.90
39525;DHT22;25203;50.754;6.978;2023-03-14T00:57:28;11.70;99.90
39525;DHT22;25203;50.754;6.978;2023-03-14T00:59:28;11.70;99.90
39525;DHT22;25203;50.754;6.978;2023-03-14T01:01:29;11.70;99.90
39525;DHT22;25203;50.754;6.978;2023-03-14T01:03:30;11.70;99.90
39525;DHT22;25203;50.754;6.978;2023-03-14T01:05:31;11.70;99.90
39525;DHT22;25203;50.754;6.978;2023-03-14T01:07:31;11.70;99.90
39525;DHT22;25203;50.754;6.978;2023-03-14T01:09:32;11.60;99.90
39525;DHT22;25203;50.754;6.978;2023-03-14T01:11:34;11.60;99.90
39525;DHT22;25203;50.754;6.978;2023-03-14T01:13:35;11.60;99.90
39525;DHT22;25203;50.754;6.978;2023-03-14T01:15:37;11.50;99.90
39525;DHT22;25203;50.754;6.978;2023-03-14T01:17:38;11.50;99.90
39525;DHT22;25203;50.754;6.978;2023-03-14T01:19:39;11.40;99.90
39525;DHT22;25203;50.754;6.978;2023-03-14T01:21:40;11.40;99.90
39525;DHT22;25203;50.754;6.978;2023-03-14T01:23:41;11.50;99.90
39525;DHT22;25203;50.754;6.978;2023-03-14T01:25:42;11.50;99.90
39525;DHT22;25203;50.754;6.978;2023-03-14T01:27:44;11.50;99.90
39525;DHT22;25203;50.754;6.978;2023-03-14T01:29:44;11.40;99.90
39525;DHT22;25203;50.754;6.978;2023-03-14T01:31:47;11.20;99.90
39525;DHT22;25203;50.754;6.978;2023-03-14T01:33:48;11.00;99.90
39525;DHT22;25203;50.754;6.978;2023-03-14T01:35:49;10.90;99.90
39525;DHT22;25203;50.754;6.978;2023-03-14T01:37:50;10.80;99.90
39525;DHT22;25203;50.754;6.978;2023-03-14T01:39:51;10.70;99.90
39525;DHT22;25203;50.754;6.978;2023-03-14T01:41:51;10.60;99.90
39525;DHT22;25203;50.754;6.978;2023-03-14T01:43:52;10.60;99.90
39525;DHT22;25203;50.754;6.978;2023-03-14T01:48:02;10.50;99.90
39525;DHT22;25203;50.754;6.978;2023-03-14T01:50:08;10.50;99.90
39525;DHT22;25203;50.754;6.978;2023-03-14T01:52:14;10.60;99.90
39525;DHT22;25203;50.754;6.978;2023-03-14T01:54:24;10.50;99.90
39525;DHT22;25203;50.754;6.978;2023-03-14T01:56:25;10.40;99.90
39525;DHT22;25203;50.754;6.978;2023-03-14T01:58:27;10.20;99.90
39525;DHT22;25203;50.754;6.978;2023-03-14T02:00:29;9.90;99.90
39525;DHT22;25203;50.754;6.978;2023-03-14T02:02:30;9.60;99.90
39525;DHT22;25203;50.754;6.978;2023-03-14T02:04:33;9.30;99.90
39525;DHT22;25203;50.754;6.978;2023-03-14T02:08:47;9.20;99.90
39525;DHT22;25203;50.754;6.978;2023-03-14T02:10:50;9.20;99.90
39525;DHT22;25203;50.754;6.978;2023-03-14T02:12:52;9.20;99.90
39525;DHT22;25203;50.754;6.978;2023-03-14T02:14:53;9.20;99.90
39525;DHT22;25203;50.754;6.978;2023-03-14T02:16:54;9.30;99.90
39525;DHT22;25203;50.754;6.978;2023-03-14T02:18:55;9.30;99.90
39525;DHT22;25203;50.754;6.978;2023-03-14T02:21:16;9.30;99.90
39525;DHT22;25203;50.754;6.978;2023-03-14T02:25:57;9.20;99.90
39525;DHT22;25203;50.754;6.978;2023-03-14T02:28:01;9.20;99.90
39525;DHT22;25203;50.754;6.978;2023-03-14T02:30:14;9.20;99.90
39525;DHT22;25203;50.754;6.978;2023-03-14T02:32:16;9.30;99.90
39525;DHT22;25203;50.754;6.978;2023-03-14T02:34:17;9.30;99.90
39525;DHT22;25203;50.754;6.978;2023-03-14T02:36:19;9.40;99.90
39525;DHT22;25203;50.754;6.978;2023-03-14T02:40:33;9.60;99.90
39525;DHT22;25203;50.754;6.978;2023-03-14T02:42:34;9.70;99.90
39525;DHT22;25203;50.754;6.978;2023-03-14T02:44:34;9.80;99.90
39525;DHT22;25203;50.754;6.978;2023-03-14T02:46:35;9.90;99.90
39525;DHT22;25203;50.754;6.978;2023-03-14T02:48:41;10.00;99.90
39525;DHT22;25203;50.754;6.978;2023-03-14T02:50:44;10.00;99.90
39525;DHT22;25203;50.754;6.978;2023-03-14T02:52:45;10.10;99.90
39525;DHT22;25203;50.754;6.978;2023-03-14T02:54:46;10.10;99.90
39525;DHT22;25203;50.754;6.978;2023-03-14T02:56:47;10.20;99.90
39525;DHT22;25203;50.754;6.978;2023-03-14T02:58:47;10.20;99.90
39525;DHT22;25203;50.754;6.978;2023-03-14T03:00:48;10.20;99.90
39525;DHT22;25203;50.754;6.978;2023-03-14T03:02:49;10.20;99.90
39525;DHT22;25203;50.754;6.978;2023-03-14T03:04:49;10.20;99.90
39525;DHT22;25203;50.754;6.978;2023-03-14T03:06:50;10.20;99.90
39525;DHT22;25203;50.754;6.978;2023-03-14T03:08:51;10.20;99.90
39525;DHT22;25203;50.754;6.978;2023-03-14T03:10:51;10.30;99.90
39525;DHT22;25203;50.754;6.978;2023-03-14T03:12:52;10.20;99.90
39525;DHT22;25203;50.754;6.978;2023-03-14T03:14:53;10.20;99.90
39525;DHT22;25203;50.754;6.978;2023-03-14T03:16:53;10.20;99.90
39525;DHT22;25203;50.754;6.978;2023-03-14T03:18:54;10.20;99.90
39525;DHT22;25203;50.754;6.978;2023-03-14T03:20:54;10.20;99.90
39525;DHT22;25203;50.754;6.978;2023-03-14T03:22:55;10.10;99.90
39525;DHT22;25203;50.754;6.978;2023-03-14T03:24:55;10.20;99.90
39525;DHT22;25203;50.754;6.978;2023-03-14T03:26:56;10.30;99.90
39525;DHT22;25203;50.754;6.978;2023-03-14T03:28:57;10.40;99.90
39525;DHT22;25203;50.754;6.978;2023-03-14T03:30:57;10.40;99.90
39525;DHT22;25203;50.754;6.978;2023-03-14T03:32:58;10.40;99.90
39525;DHT22;25203;50.754;6.978;2023-03-14T03:34:58;10.50;99.90
39525;DHT22;25203;50.754;6.978;2023-03-14T03:36:59;10.50;99.90
39525;DHT22;25203;50.754;6.978;2023-03-14T03:38:59;10.60;99.90
39525;DHT22;25203;50.754;6.978;2023-03-14T03:41:06;10.60;99.90
39525;DHT22;25203;50.754;6.978;2023-03-14T03:43:07;10.60;99.90
39525;DHT22;25203;50.754;6.978;2023-03-14T03:45:08;10.60;99.90
39525;DHT22;25203;50.754;6.978;2023-03-14T03:47:08;10.50;99.90
39525;DHT22;25203;50.754;6.978;2023-03-14T03:49:09;10.50;99.90
39525;DHT22;25203;50.754;6.978;2023-03-14T03:51:14;10.40;99.90
39525;DHT22;25203;50.754;6.978;2023-03-14T03:53:15;10.30;99.90
39525;DHT22;25203;50.754;6.978;2023-03-14T03:55:16;10.30;99.90
39525;DHT22;25203;50.754;6.978;2023-03-14T03:57:16;10.30;99.90
39525;DHT22;25203;50.754;6.978;2023-03-14T03:59:17;10.30;99.90
39525;DHT22;25203;50.754;6.978;2023-03-14T04:01:18;10.30;99.90
39525;DHT22;25203;50.754;6.978;2023-03-14T04:03:19;10.30;99.90
39525;DHT22;25203;50.754;6.978;2023-03-14T04:05:19;10.30;99.90
39525;DHT22;25203;50.754;6.978;2023-03-14T04:07:20;10.30;99.90
39525;DHT22;25203;50.754;6.978;2023-03-14T04:09:20;10.30;99.90
39525;DHT22;25203;50.754;6.978;2023-03-14T04:11:21;10.30;99.90
39525;DHT22;25203;50.754;6.978;2023-03-14T04:13:22;10.30;99.90
39525;DHT22;25203;50.754;6.978;2023-03-14T04:15:22;10.30;99.90
39525;DHT22;25203;50.754;6.978;2023-03-14T04:17:23;10.20;99.90
39525;DHT22;25203;50.754;6.978;2023-03-14T04:19:23;10.20;99.90
39525;DHT22;25203;50.754;6.978;2023-03-14T04:21:24;10.30;99.90
39525;DHT22;25203;50.754;6.978;2023-03-14T04:23:25;10.30;99.90
39525;DHT22;25203;50.754;6.978;2023-03-14T04:25:25;10.30;99.90
39525;DHT22;25203;50.754;6.978;2023-03-14T04:27:26;10.30;99.90
39525;DHT22;25203;50.754;6.978;2023-03-14T04:29:27;10.30;99.90
39525;DHT22;25203;50.754;6.978;2023-03-14T04:31:28;10.30;99.90
39525;DHT22;25203;50.754;6.978;2023-03-14T04:33:28;10.30;99.90
39525;DHT22;25203;50.754;6.978;2023-03-14T04:35:30;10.30;99.90
39525;DHT22;25203;50.754;6.978;2023-03-14T04:37:31;10.30;99.90
39525;DHT22;25203;50.754;6.978;2023-03-14T04:39:32;10.20;99.90
39525;DHT22;25203;50.754;6.978;2023-03-14T04:41:33;10.20;99.90
39525;DHT22;25203;50.754;6.978;2023-03-14T04:43:33;10.10;99.90
39525;DHT22;25203;50.754;6.978;2023-03-14T04:45:34;10.00;99.90
39525;DHT22;25203;50.754;6.978;2023-03-14T04:47:35;9.90;99.90
39525;DHT22;25203;50.754;6.978;2023-03-14T04:49:35;9.80;99.90
39525;DHT22;25203;50.754;6.978;2023-03-14T04:51:36;9.80;99.90
39525;DHT22;25203;50.754;6.978;2023-03-14T04:53:36;9.70;99.90
39525;DHT22;25203;50.754;6.978;2023-03-14T04:55:37;9.70;99.90
39525;DHT22;25203;50.754;6.978;2023-03-14T04:57:38;9.70;99.90
39525;DHT22;25203;50.754;6.978;2023-03-14T04:59:38;9.70;99.90
39525;DHT22;25203;50.754;6.978;2023-03-14T05:01:39;9.70;99.90
39525;DHT22;25203;50.754;6.978;2023-03-14T05:03:41;9.60;99.90
39525;DHT22;25203;50.754;6.978;2023-03-14T05:05:42;9.60;99.90
39525;DHT22;25203;50.754;6.978;2023-03-14T05:07:43;9.60;99.90
39525;DHT22;25203;50.754;6.978;2023-03-14T05:09:43;9.70;99.90
39525;DHT22;25203;50.754;6.978;2023-03-14T05:11:44;9.80;99.90
39525;DHT22;25203;50.754;6.978;2023-03-14T05:13:45;9.80;99.90
39525;DHT22;25203;50.754;6.978;2023-03-14T05:15:45;9.80;99.90
39525;DHT22;25203;50.754;6.978;2023-03-14T05:17:46;9.70;99.90
39525;DHT22;25203;50.754;6.978;2023-03-14T05:19:46;9.70;99.90
39525;DHT22;25203;50.754;6.978;2023-03-14T05:21:47;9.70;99.90
39525;DHT22;25203;50.754;6.978;2023-03-14T05:23:48;9.70;99.90
39525;DHT22;25203;50.754;6.978;2023-03-14T05:25:48;9.70;99.90
39525;DHT22;25203;50.754;6.978;2023-03-14T05:27:49;9.70;99.90
39525;DHT22;25203;50.754;6.978;2023-03-14T05:29:49;9.60;99.90
39525;DHT22;25203;50.754;6.978;2023-03-14T05:31:50;9.70;99.90
39525;DHT22;25203;50.754;6.978;2023-03-14T05:33:51;9.70;99.90
39525;DHT22;25203;50.754;6.978;2023-03-14T05:35:51;9.80;99.90
39525;DHT22;25203;50.754;6.978;2023-03-14T05:37:52;9.80;99.90
39525;DHT22;25203;50.754;6.978;2023-03-14T05:39:52;9.80;99.90
39525;DHT22;25203;50.754;6.978;2023-03-14T05:41:53;9.80;99.90
39525;DHT22;25203;50.754;6.978;2023-03-14T05:43:56;9.70;99.90
39525;DHT22;25203;50.754;6.978;2023-03-14T05:45:56;9.70;99.90
39525;DHT22;25203;50.754;6.978;2023-03-14T05:47:57;9.80;99.90
39525;DHT22;25203;50.754;6.978;2023-03-14T05:49:57;9.80;99.90
39525;DHT22;25203;50.754;6.978;2023-03-14T05:51:58;9.80;99.90
39525;DHT22;25203;50.754;6.978;2023-03-14T05:53:59;9.80;99.90
39525;DHT22;25203;50.754;6.978;2023-03-14T05:55:59;9.80;99.90
39525;DHT22;25203;50.754;6.978;2023-03-14T05:58:00;9.80;99.90
39525;DHT22;25203;50.754;6.978;2023-03-14T06:00:00;9.80;99.90
39525;DHT22;25203;50.754;6.978;2023-03-14T06:02:01;9.80;99.90
39525;DHT22;25203;50.754;6.978;2023-03-14T06:04:02;9.80;99.90
39525;DHT22;25203;50.754;6.978;2023-03-14T06:06:02;9.80;99.90
39525;DHT22;25203;50.754;6.978;2023-03-14T06:08:03;9.80;99.90
39525;DHT22;25203;50.754;6.978;2023-03-14T06:10:05;9.80;99.90
39525;DHT22;25203;50.754;6.978;2023-03-14T06:12:05;9.80;99.90
39525;DHT22;25203;50.754;6.978;2023-03-14T06:14:06;9.90;99.90
39525;DHT22;25203;50.754;6.978;2023-03-14T06:16:07;9.90;99.90
39525;DHT22;25203;50.754;6.978;2023-03-14T06:18:08;9.80;99.90
39525;DHT22;25203;50.754;6.978;2023-03-14T06:20:09;9.80;99.90
39525;DHT22;25203;50.754;6.978;2023-03-14T06:22:10;9.80;99.90
39525;DHT22;25203;50.754;6.978;2023-03-14T06:24:11;9.80;99.90
39525;DHT22;25203;50.754;6.978;2023-03-14T06:26:11;9.80;99.90
39525;DHT22;25203;50.754;6.978;2023-03-14T06:28:12;9.80;99.90
39525;DHT22;25203;50.754;6.978;2023-03-14T06:30:13;9.80;99.90
39525;DHT22;25203;50.754;6.978;2023-03-14T06:32:13;9.80;99.90
39525;DHT22;25203;50.754;6.978;2023-03-14T06:34:14;9.90;99.90
39525;DHT22;25203;50.754;6.978;2023-03-14T06:36:15;9.90;99.90
39525;DHT22;25203;50.754;6.978;2023-03-14T06:38:15;9.90;99.90
39525;DHT22;25203;50.754;6.978;2023-03-14T06:40:16;10.00;99.90
39525;DHT22;25203;50.754;6.978;2023-03-14T06:42:18;10.00;99.90
39525;DHT22;25203;50.754;6.978;2023-03-14T06:44:18;10.10;99.90
39525;DHT22;25203;50.754;6.978;2023-03-14T06:46:19;10.10;99.90
39525;DHT22;25203;50.754;6.978;2023-03-14T06:48:20;10.10;99.90
39525;DHT22;25203;50.754;6.978;2023-03-14T06:50:20;10.10;99.90
39525;DHT22;25203;50.754;6.978;2023-03-14T06:52:22;10.20;99.90
39525;DHT22;25203;50.754;6.978;2023-03-14T06:54:23;10.30;99.90
39525;DHT22;25203;50.754;6.978;2023-03-14T06:56:23;10.40;99.90
39525;DHT22;25203;50.754;6.978;2023-03-14T06:58:24;10.50;99.90
39525;DHT22;25203;50.754;6.978;2023-03-14T07:00:24;10.60;99.90
39525;DHT22;25203;50.754;6.978;2023-03-14T07:02:25;10.70;99.90
39525;DHT22;25203;50.754;6.978;2023-03-14T07:04:26;10.80;99.90
39525;DHT22;25203;50.754;6.978;2023-03-14T07:06:26;10.80;99.90
39525;DHT22;25203;50.754;6.978;2023-03-14T07:08:29;10.80;99.90
39525;DHT22;25203;50.754;6.978;2023-03-14T07:10:30;10.80;99.90
39525;DHT22;25203;50.754;6.978;2023-03-14T07:12:30;10.80;99.90
39525;DHT22;25203;50.754;6.978;2023-03-14T07:14:31;10.70;99.90
39525;DHT22;25203;50.754;6.978;2023-03-14T07:16:31;10.70;99.90
39525;DHT22;25203;50.754;6.978;2023-03-14T07:18:33;10.70;99.90
39525;DHT22;25203;50.754;6.978;2023-03-14T07:20:34;10.70;99.90
39525;DHT22;25203;50.754;6.978;2023-03-14T07:22:34;10.80;99.90
39525;DHT22;25203;50.754;6.978;2023-03-14T07:24:35;10.90;99.90
39525;DHT22;25203;50.754;6.978;2023-03-14T07:26:35;10.90;99.90
39525;DHT22;25203;50.754;6.978;2023-03-14T07:28:36;10.90;99.90
39525;DHT22;25203;50.754;6.978;2023-03-14T07:30:37;11.00;99.90
39525;DHT22;25203;50.754;6.978;2023-03-14T07:32:37;11.00;99.90
39525;DHT22;25203;50.754;6.978;2023-03-14T07:34:38;11.00;99.90
39525;DHT22;25203;50.754;6.978;2023-03-14T07:36:38;11.00;99.90
39525;DHT22;25203;50.754;6.978;2023-03-14T07:38:39;11.10;99.90
39525;DHT22;25203;50.754;6.978;2023-03-14T07:40:40;11.10;99.90
39525;DHT22;25203;50.754;6.978;2023-03-14T07:42:41;11.20;99.90
39525;DHT22;25203;50.754;6.978;2023-03-14T07:44:42;11.50;99.90
39525;DHT22;25203;50.754;6.978;2023-03-14T07:46:43;12.40;99.90
39525;DHT22;25203;50.754;6.978;2023-03-14T07:48:44;13.30;99.90
39525;DHT22;25203;50.754;6.978;2023-03-14T07:50:48;13.70;99.90
39525;DHT22;25203;50.754;6.978;2023-03-14T07:52:49;14.40;99.90
39525;DHT22;25203;50.754;6.978;2023-03-14T07:54:50;14.80;99.90
39525;DHT22;25203;50.754;6.978;2023-03-14T07:56:51;14.50;99.90
39525;DHT22;25203;50.754;6.978;2023-03-14T07:58:54;14.30;99.90
39525;DHT22;25203;50.754;6.978;2023-03-14T08:00:55;14.70;99.90
39525;DHT22;25203;50.754;6.978;2023-03-14T08:02:58;15.40;99.90
39525;DHT22;25203;50.754;6.978;2023-03-14T08:04:59;14.90;99.90
39525;DHT22;25203;50.754;6.978;2023-03-14T08:06:59;14.30;99.90
39525;DHT22;25203;50.754;6.978;2023-03-14T08:09:00;13.80;99.90
39525;DHT22;25203;50.754;6.978;2023-03-14T08:11:07;13.70;99.90
39525;DHT22;25203;50.754;6.978;2023-03-14T08:13:11;14.00;99.90
39525;DHT22;25203;50.754;6.978;2023-03-14T08:15:11;14.00;99.90
39525;DHT22;25203;50.754;6.978;2023-03-14T08:17:12;13.60;99.90
39525;DHT22;25203;50.754;6.978;2023-03-14T08:19:13;13.30;99.90
39525;DHT22;25203;50.754;6.978;2023-03-14T08:21:14;13.60;99.90
39525;DHT22;25203;50.754;6.978;2023-03-14T08:23:14;13.80;99.90
39525;DHT22;25203;50.754;6.978;2023-03-14T08:25:15;13.80;99.90
39525;DHT22;25203;50.754;6.978;2023-03-14T08:27:16;13.70;99.90
39525;DHT22;25203;50.754;6.978;2023-03-14T08:29:17;13.30;99.90
39525;DHT22;25203;50.754;6.978;2023-03-14T08:31:17;13.00;99.90
39525;DHT22;25203;50.754;6.978;2023-03-14T08:33:18;12.80;99.90
39525;DHT22;25203;50.754;6.978;2023-03-14T08:35:19;12.60;99.90
39525;DHT22;25203;50.754;6.978;2023-03-14T08:37:19;12.40;99.90
39525;DHT22;25203;50.754;6.978;2023-03-14T08:39:20;12.30;99.90
39525;DHT22;25203;50.754;6.978;2023-03-14T08:41:21;12.20;99.90
39525;DHT22;25203;50.754;6.978;2023-03-14T08:43:21;12.10;99.90
39525;DHT22;25203;50.754;6.978;2023-03-14T08:45:22;12.00;99.90
39525;DHT22;25203;50.754;6.978;2023-03-14T08:47:24;12.00;99.90
39525;DHT22;25203;50.754;6.978;2023-03-14T08:49:24;12.00;99.90
39525;DHT22;25203;50.754;6.978;2023-03-14T08:51:25;12.10;99.90
39525;DHT22;25203;50.754;6.978;2023-03-14T08:53:26;12.20;99.90
39525;DHT22;25203;50.754;6.978;2023-03-14T08:55:27;12.20;99.90
39525;DHT22;25203;50.754;6.978;2023-03-14T08:57:27;12.10;99.90
39525;DHT22;25203;50.754;6.978;2023-03-14T08:59:28;12.10;99.90
39525;DHT22;25203;50.754;6.978;2023-03-14T09:01:28;12.10;99.90
39525;DHT22;25203;50.754;6.978;2023-03-14T09:03:29;12.00;99.90
39525;DHT22;25203;50.754;6.978;2023-03-14T09:05:33;11.90;99.90
39525;DHT22;25203;50.754;6.978;2023-03-14T09:07:34;11.70;99.90
39525;DHT22;25203;50.754;6.978;2023-03-14T09:09:35;11.50;99.90
39525;DHT22;25203;50.754;6.978;2023-03-14T09:11:35;11.30;99.90
39525;DHT22;25203;50.754;6.978;2023-03-14T09:13:36;11.00;99.90
39525;DHT22;25203;50.754;6.978;2023-03-14T09:15:37;10.80;99.90
39525;DHT22;25203;50.754;6.978;2023-03-14T09:17:37;10.70;99.90
39525;DHT22;25203;50.754;6.978;2023-03-14T09:19:38;10.60;99.90
39525;DHT22;25203;50.754;6.978;2023-03-14T09:21:39;10.70;99.90
39525;DHT22;25203;50.754;6.978;2023-03-14T09:23:39;10.70;99.90
39525;DHT22;25203;50.754;6.978;2023-03-14T09:25:40;10.80;99.90
39525;DHT22;25203;50.754;6.978;2023-03-14T09:27:41;10.90;99.90
39525;DHT22;25203;50.754;6.978;2023-03-14T09:29:41;10.90;99.90
39525;DHT22;25203;50.754;6.978;2023-03-14T09:31:42;11.00;99.90
39525;DHT22;25203;50.754;6.978;2023-03-14T09:33:43;11.00;99.90
39525;DHT22;25203;50.754;6.978;2023-03-14T09:35:44;11.10;99.90
39525;DHT22;25203;50.754;6.978;2023-03-14T09:37:45;11.10;99.90
39525;DHT22;25203;50.754;6.978;2023-03-14T09:39:46;11.00;99.90
39525;DHT22;25203;50.754;6.978;2023-03-14T09:41:49;11.00;99.90
39525;DHT22;25203;50.754;6.978;2023-03-14T09:44:09;10.90;99.90
39525;DHT22;25203;50.754;6.978;2023-03-14T09:46:12;10.90;99.90
39525;DHT22;25203;50.754;6.978;2023-03-14T09:48:24;10.80;99.90
39525;DHT22;25203;50.754;6.978;2023-03-14T09:50:33;10.70;99.90
39525;DHT22;25203;50.754;6.978;2023-03-14T09:52:39;9.80;99.90
39525;DHT22;25203;50.754;6.978;2023-03-14T09:54:50;9.30;99.90
39525;DHT22;25203;50.754;6.978;2023-03-14T09:56:52;9.00;99.90
39525;DHT22;25203;50.754;6.978;2023-03-14T09:58:59;8.80;99.90
39525;DHT22;25203;50.754;6.978;2023-03-14T10:01:00;8.60;99.90
39525;DHT22;25203;50.754;6.978;2023-03-14T10:05:16;8.40;99.90
39525;DHT22;25203;50.754;6.978;2023-03-14T10:07:27;8.40;99.90
39525;DHT22;25203;50.754;6.978;2023-03-14T10:09:28;8.40;99.90
39525;DHT22;25203;50.754;6.978;2023-03-14T10:11:29;8.40;99.90
39525;DHT22;25203;50.754;6.978;2023-03-14T10:13:30;8.30;99.90
39525;DHT22;25203;50.754;6.978;2023-03-14T10:15:32;8.20;99.90
39525;DHT22;25203;50.754;6.978;2023-03-14T10:17:48;8.20;99.90
39525;DHT22;25203;50.754;6.978;2023-03-14T10:21:54;8.10;99.90
39525;DHT22;25203;50.754;6.978;2023-03-14T10:23:54;8.10;99.90
39525;DHT22;25203;50.754;6.978;2023-03-14T10:26:18;8.20;99.90
39525;DHT22;25203;50.754;6.978;2023-03-14T10:28:26;8.20;99.90
39525;DHT22;25203;50.754;6.978;2023-03-14T10:30:43;8.30;99.90
39525;DHT22;25203;50.754;6.978;2023-03-14T10:32:45;8.30;99.90
39525;DHT22;25203;50.754;6.978;2023-03-14T10:37:22;8.20;99.90
39525;DHT22;25203;50.754;6.978;2023-03-14T10:39:34;8.10;99.90
39525;DHT22;25203;50.754;6.978;2023-03-14T10:41:39;8.10;99.90
39525;DHT22;25203;50.754;6.978;2023-03-14T10:43:40;8.10;99.90
39525;DHT22;25203;50.754;6.978;2023-03-14T10:45:42;8.00;99.90
39525;DHT22;25203;50.754;6.978;2023-03-14T10:47:50;8.00;99.90
39525;DHT22;25203;50.754;6.978;2023-03-14T10:49:51;8.10;99.90
39525;DHT22;25203;50.754;6.978;2023-03-14T10:51:52;8.20;99.90
39525;DHT22;25203;50.754;6.978;2023-03-14T10:54:19;8.20;99.90
39525;DHT22;25203;50.754;6.978;2023-03-14T10:56:22;8.40;99.90
39525;DHT22;25203;50.754;6.978;2023-03-14T10:58:28;8.40;99.90
39525;DHT22;25203;50.754;6.978;2023-03-14T11:00:30;8.50;99.90
39525;DHT22;25203;50.754;6.978;2023-03-14T11:07:24;8.40;99.90
39525;DHT22;25203;50.754;6.978;2023-03-14T11:09:45;8.40;99.90
39525;DHT22;25203;50.754;6.978;2023-03-14T11:11:51;8.30;99.90
39525;DHT22;25203;50.754;6.978;2023-03-14T11:16:22;8.20;99.90
39525;DHT22;25203;50.754;6.978;2023-03-14T11:21:21;8.40;99.90
39525;DHT22;25203;50.754;6.978;2023-03-14T11:26:19;8.60;99.90
39525;DHT22;25203;50.754;6.978;2023-03-14T11:33:25;8.30;99.90
39525;DHT22;25203;50.754;6.978;2023-03-14T11:35:17;8.90;99.90
39525;DHT22;25203;50.754;6.978;2023-03-14T11:37:33;9.50;99.90
39525;DHT22;25203;50.754;6.978;2023-03-14T11:39:45;10.20;99.90
39525;DHT22;25203;50.754;6.978;2023-03-14T11:41:54;10.90;99.90
39525;DHT22;25203;50.754;6.978;2023-03-14T11:43:59;11.00;99.90
39525;DHT22;25203;50.754;6.978;2023-03-14T11:50:32;10.10;99.90
39525;DHT22;25203;50.754;6.978;2023-03-14T11:55:07;10.10;99.90
39525;DHT22;25203;50.754;6.978;2023-03-14T11:57:20;10.30;99.90
39525;DHT22;25203;50.754;6.978;2023-03-14T11:59:26;10.60;99.90
39525;DHT22;25203;50.754;6.978;2023-03-14T12:01:40;10.80;99.90
39525;DHT22;25203;50.754;6.978;2023-03-14T12:03:46;10.80;99.90
39525;DHT22;25203;50.754;6.978;2023-03-14T12:08:38;10.40;99.90
39525;DHT22;25203;50.754;6.978;2023-03-14T12:10:44;9.80;99.90
39525;DHT22;25203;50.754;6.978;2023-03-14T12:12:45;8.90;99.90
39525;DHT22;25203;50.754;6.978;2023-03-14T12:14:54;8.10;99.90
39525;DHT22;25203;50.754;6.978;2023-03-14T12:17:06;7.60;99.90
39525;DHT22;25203;50.754;6.978;2023-03-14T12:19:21;7.20;99.90
39525;DHT22;25203;50.754;6.978;2023-03-14T12:21:44;6.80;99.90
39525;DHT22;25203;50.754;6.978;2023-03-14T12:26:12;6.50;99.90
39525;DHT22;25203;50.754;6.978;2023-03-14T12:28:17;6.40;99.90
39525;DHT22;25203;50.754;6.978;2023-03-14T12:32:27;6.20;99.90
39525;DHT22;25203;50.754;6.978;2023-03-14T12:34:33;6.20;99.90
39525;DHT22;25203;50.754;6.978;2023-03-14T12:39:04;6.30;99.90
39525;DHT22;25203;50.754;6.978;2023-03-14T12:41:14;6.30;99.90
39525;DHT22;25203;50.754;6.978;2023-03-14T12:43:30;6.40;99.90
39525;DHT22;25203;50.754;6.978;2023-03-14T12:49:35;6.80;99.90
39525;DHT22;25203;50.754;6.978;2023-03-14T12:51:40;6.90;99.90
39525;DHT22;25203;50.754;6.978;2023-03-14T13:00:31;7.10;99.90
39525;DHT22;25203;50.754;6.978;2023-03-14T13:02:42;7.10;99.90
39525;DHT22;25203;50.754;6.978;2023-03-14T13:05:01;7.10;99.90
39525;DHT22;25203;50.754;6.978;2023-03-14T13:07:03;7.10;99.90
39525;DHT22;25203;50.754;6.978;2023-03-14T13:11:33;7.20;99.90
39525;DHT22;25203;50.754;6.978;2023-03-14T13:13:35;7.30;99.90
39525;DHT22;25203;50.754;6.978;2023-03-14T13:15:42;7.30;99.90
39525;DHT22;25203;50.754;6.978;2023-03-14T13:17:44;7.40;99.90
39525;DHT22;25203;50.754;6.978;2023-03-14T13:19:52;7.40;99.90
39525;DHT22;25203;50.754;6.978;2023-03-14T13:22:12;7.30;99.90
39525;DHT22;25203;50.754;6.978;2023-03-14T13:24:24;7.30;99.90
39525;DHT22;25203;50.754;6.978;2023-03-14T13:26:53;7.30;99.90
39525;DHT22;25203;50.754;6.978;2023-03-14T13:28:53;7.30;99.90
39525;DHT22;25203;50.754;6.978;2023-03-14T13:30:58;7.30;99.90
39525;DHT22;25203;50.754;6.978;2023-03-14T13:33:03;7.40;99.90
39525;DHT22;25203;50.754;6.978;2023-03-14T13:35:25;7.50;99.90
39525;DHT22;25203;50.754;6.978;2023-03-14T13:37:26;7.50;99.90
39525;DHT22;25203;50.754;6.978;2023-03-14T13:39:28;7.50;99.90
39525;DHT22;25203;50.754;6.978;2023-03-14T13:41:29;7.50;99.90
39525;DHT22;25203;50.754;6.978;2023-03-14T13:43:41;7.50;99.90
39525;DHT22;25203;50.754;6.978;2023-03-14T13:45:48;7.50;99.90
39525;DHT22;25203;50.754;6.978;2023-03-14T13:47:51;7.50;99.90
39525;DHT22;25203;50.754;6.978;2023-03-14T13:49:52;7.60;99.90
39525;DHT22;25203;50.754;6.978;2023-03-14T13:51:53;7.60;99.90
39525;DHT22;25203;50.754;6.978;2023-03-14T13:53:55;7.50;99.90
39525;DHT22;25203;50.754;6.978;2023-03-14T13:55:55;7.40;99.90
39525;DHT22;25203;50.754;6.978;2023-03-14T13:57:56;7.10;99.90
39525;DHT22;25203;50.754;6.978;2023-03-14T14:00:05;6.90;99.90
39525;DHT22;25203;50.754;6.978;2023-03-14T14:02:13;6.50;99.90
39525;DHT22;25203;50.754;6.978;2023-03-14T14:04:17;6.40;99.90